sensor_id;sensor_type;location;lat;lon;timestamp;temperature;humidity
73780;SHT30;62093;37.614;15.072;2023-03-01T00:01:31;15.60;62.33
73780;SHT30;62093;37.614;15.072;2023-03-01T00:03:58;15.58;62.11
73780;SHT30;62093;37.614;15.072;2023-03-01T00:06:25;15.60;62.18
73780;SHT30;62093;37.614;15.072;2023-03-01T00:08:52;15.60;62.01
73780;SHT30;62093;37.614;15.072;2023-03-01T00:11:24;15.58;61.69
73780;SHT30;62093;37.614;15.072;2023-03-01T00:13:53;15.57;61.84
73780;SHT30;62093;37.614;15.072;2023-03-01T00:16:42;15.58;61.83
73780;SHT30;62093;37.614;15.072;2023-03-01T00:19:19;15.54;61.91
73780;SHT30;62093;37.614;15.072;2023-03-01T00:21:45;15.54;62.06
73780;SHT30;62093;37.614;15.072;2023-03-01T00:24:12;15.57;62.21
73780;SHT30;62093;37.614;15.072;2023-03-01T00:26:38;15.57;61.93
73780;SHT30;62093;37.614;15.072;2023-03-01T00:29:04;15.54;62.15
73780;SHT30;62093;37.614;15.072;2023-03-01T00:31:32;15.53;62.04
73780;SHT30;62093;37.614;15.072;2023-03-01T00:34:01;15.53;62.02
73780;SHT30;62093;37.614;15.072;2023-03-01T00:36:31;15.53;62.10
73780;SHT30;62093;37.614;15.072;2023-03-01T00:38:57;15.50;62.01
73780;SHT30;62093;37.614;15.072;2023-03-01T00:41:24;15.50;61.93
73780;SHT30;62093;37.614;15.072;2023-03-01T00:43:52;15.51;62.07
73780;SHT30;62093;37.614;15.072;2023-03-01T00:46:21;15.49;62.02
73780;SHT30;62093;37.614;15.072;2023-03-01T00:48:49;15.49;61.83
73780;SHT30;62093;37.614;15.072;2023-03-01T00:51:18;15.51;62.11
73780;SHT30;62093;37.614;15.072;2023-03-01T00:53:45;15.50;61.94
73780;SHT30;62093;37.614;15.072;2023-03-01T00:56:13;15.50;61.88
73780;SHT30;62093;37.614;15.072;2023-03-01T00:58:39;15.51;62.01
73780;SHT30;62093;37.614;15.072;2023-03-01T01:01:10;15.47;62.08
73780;SHT30;62093;37.614;15.072;2023-03-01T01:03:51;15.47;62.21
73780;SHT30;62093;37.614;15.072;2023-03-01T01:06:28;15.49;62.15
73780;SHT30;62093;37.614;15.072;2023-03-01T01:08:56;15.46;62.11
73780;SHT30;62093;37.614;15.072;2023-03-01T01:11:24;15.44;62.21
73780;SHT30;62093;37.614;15.072;2023-03-01T01:13:51;15.47;62.12
73780;SHT30;62093;37.614;15.072;2023-03-01T01:16:19;15.46;62.20
73780;SHT30;62093;37.614;15.072;2023-03-01T01:18:46;15.43;62.17
73780;SHT30;62093;37.614;15.072;2023-03-01T01:21:14;15.43;62.28
73780;SHT30;62093;37.614;15.072;2023-03-01T01:23:41;15.44;62.33
73780;SHT30;62093;37.614;15.072;2023-03-01T01:26:11;15.44;62.37
73780;SHT30;62093;37.614;15.072;2023-03-01T01:28:38;15.43;62.39
73780;SHT30;62093;37.614;15.072;2023-03-01T01:31:04;15.40;62.22
73780;SHT30;62093;37.614;15.072;2023-03-01T01:33:31;15.40;62.28
73780;SHT30;62093;37.614;15.072;2023-03-01T01:35:58;15.41;62.39
73780;SHT30;62093;37.614;15.072;2023-03-01T01:38:24;15.43;62.33
73780;SHT30;62093;37.614;15.072;2023-03-01T01:40:51;15.39;62.28
73780;SHT30;62093;37.614;15.072;2023-03-01T01:45:46;15.39;62.13
73780;SHT30;62093;37.614;15.072;2023-03-01T01:48:16;15.37;62.16
73780;SHT30;62093;37.614;15.072;2023-03-01T01:50:43;15.37;62.08
73780;SHT30;62093;37.614;15.072;2023-03-01T01:53:19;15.37;61.86
73780;SHT30;62093;37.614;15.072;2023-03-01T01:55:50;15.34;61.63
73780;SHT30;62093;37.614;15.072;2023-03-01T01:58:19;15.31;61.73
73780;SHT30;62093;37.614;15.072;2023-03-01T02:00:47;15.36;62.07
73780;SHT30;62093;37.614;15.072;2023-03-01T02:03:27;15.31;62.03
73780;SHT30;62093;37.614;15.072;2023-03-01T02:08:44;15.31;62.11
73780;SHT30;62093;37.614;15.072;2023-03-01T02:11:12;15.31;61.94
73780;SHT30;62093;37.614;15.072;2023-03-01T02:13:41;15.29;61.92
73780;SHT30;62093;37.614;15.072;2023-03-01T02:16:10;15.30;61.90
73780;SHT30;62093;37.614;15.072;2023-03-01T02:18:38;15.30;61.80
73780;SHT30;62093;37.614;15.072;2023-03-01T02:23:49;15.29;61.83
73780;SHT30;62093;37.614;15.072;2023-03-01T02:29:01;15.24;61.87
73780;SHT30;62093;37.614;15.072;2023-03-01T02:31:27;15.26;61.72
73780;SHT30;62093;37.614;15.072;2023-03-01T02:34:17;15.27;61.77
73780;SHT30;62093;37.614;15.072;2023-03-01T02:36:47;15.24;61.84
73780;SHT30;62093;37.614;15.072;2023-03-01T02:39:17;15.24;61.82
73780;SHT30;62093;37.614;15.072;2023-03-01T02:41:49;15.22;61.96
73780;SHT30;62093;37.614;15.072;2023-03-01T02:44:15;15.23;61.95
73780;SHT30;62093;37.614;15.072;2023-03-01T02:46:50;15.22;62.09
73780;SHT30;62093;37.614;15.072;2023-03-01T02:57:17;15.24;62.06
73780;SHT30;62093;37.614;15.072;2023-03-01T02:59:45;15.23;61.85
73780;SHT30;62093;37.614;15.072;2023-03-01T03:02:22;15.22;61.66
73780;SHT30;62093;37.614;15.072;2023-03-01T03:05:05;15.22;61.80
73780;SHT30;62093;37.614;15.072;2023-03-01T03:07:34;15.20;61.93
73780;SHT30;62093;37.614;15.072;2023-03-01T03:10:03;15.19;61.92
73780;SHT30;62093;37.614;15.072;2023-03-01T03:12:30;15.19;61.69
73780;SHT30;62093;37.614;15.072;2023-03-01T03:14:56;15.18;61.76
73780;SHT30;62093;37.614;15.072;2023-03-01T03:17:22;15.18;61.80
73780;SHT30;62093;37.614;15.072;2023-03-01T03:19:49;15.16;61.81
73780;SHT30;62093;37.614;15.072;2023-03-01T03:22:15;15.18;61.79
73780;SHT30;62093;37.614;15.072;2023-03-01T03:24:41;15.16;61.67
73780;SHT30;62093;37.614;15.072;2023-03-01T03:27:08;15.19;61.63
73780;SHT30;62093;37.614;15.072;2023-03-01T03:29:34;15.19;61.90
73780;SHT30;62093;37.614;15.072;2023-03-01T03:32:01;15.18;61.76
73780;SHT30;62093;37.614;15.072;2023-03-01T03:34:27;15.16;61.46
73780;SHT30;62093;37.614;15.072;2023-03-01T03:36:54;15.18;61.70
73780;SHT30;62093;37.614;15.072;2023-03-01T03:39:23;15.16;61.63
73780;SHT30;62093;37.614;15.072;2023-03-01T03:41:49;15.16;61.50
73780;SHT30;62093;37.614;15.072;2023-03-01T03:44:15;15.14;61.78
73780;SHT30;62093;37.614;15.072;2023-03-01T03:46:41;15.14;61.71
73780;SHT30;62093;37.614;15.072;2023-03-01T03:49:08;15.16;61.64
73780;SHT30;62093;37.614;15.072;2023-03-01T03:51:34;15.12;61.70
73780;SHT30;62093;37.614;15.072;2023-03-01T03:54:00;15.12;61.56
73780;SHT30;62093;37.614;15.072;2023-03-01T03:56:26;15.09;61.63
73780;SHT30;62093;37.614;15.072;2023-03-01T03:58:52;15.14;61.56
73780;SHT30;62093;37.614;15.072;2023-03-01T04:01:19;15.10;61.54
73780;SHT30;62093;37.614;15.072;2023-03-01T04:03:45;15.12;61.69
73780;SHT30;62093;37.614;15.072;2023-03-01T04:06:13;15.09;61.62
73780;SHT30;62093;37.614;15.072;2023-03-01T04:08:40;15.09;61.58
73780;SHT30;62093;37.614;15.072;2023-03-01T04:11:06;15.12;61.81
73780;SHT30;62093;37.614;15.072;2023-03-01T04:13:54;15.10;61.43
73780;SHT30;62093;37.614;15.072;2023-03-01T04:16:20;15.12;61.32
73780;SHT30;62093;37.614;15.072;2023-03-01T04:18:47;15.09;61.23
73780;SHT30;62093;37.614;15.072;2023-03-01T04:21:13;15.09;61.54
73780;SHT30;62093;37.614;15.072;2023-03-01T04:23:39;15.09;61.19
73780;SHT30;62093;37.614;15.072;2023-03-01T04:26:07;15.07;61.35
73780;SHT30;62093;37.614;15.072;2023-03-01T04:28:39;15.06;61.25
73780;SHT30;62093;37.614;15.072;2023-03-01T04:31:14;15.04;61.40
73780;SHT30;62093;37.614;15.072;2023-03-01T04:36:11;15.06;61.08
73780;SHT30;62093;37.614;15.072;2023-03-01T04:38:38;15.04;61.33
73780;SHT30;62093;37.614;15.072;2023-03-01T04:41:06;15.04;61.43
73780;SHT30;62093;37.614;15.072;2023-03-01T04:43:33;15.04;61.22
73780;SHT30;62093;37.614;15.072;2023-03-01T04:46:05;15.06;61.39
73780;SHT30;62093;37.614;15.072;2023-03-01T04:48:32;15.04;61.18
73780;SHT30;62093;37.614;15.072;2023-03-01T04:50:59;15.04;61.00
73780;SHT30;62093;37.614;15.072;2023-03-01T04:53:26;15.06;61.13
73780;SHT30;62093;37.614;15.072;2023-03-01T04:55:56;15.02;60.94
73780;SHT30;62093;37.614;15.072;2023-03-01T04:58:26;15.02;61.01
73780;SHT30;62093;37.614;15.072;2023-03-01T05:00:52;15.02;60.97
73780;SHT30;62093;37.614;15.072;2023-03-01T05:03:19;15.02;60.86
73780;SHT30;62093;37.614;15.072;2023-03-01T05:05:47;15.00;61.27
73780;SHT30;62093;37.614;15.072;2023-03-01T05:08:14;15.02;61.22
73780;SHT30;62093;37.614;15.072;2023-03-01T05:10:55;15.02;61.10
73780;SHT30;62093;37.614;15.072;2023-03-01T05:13:21;15.02;61.36
73780;SHT30;62093;37.614;15.072;2023-03-01T05:16:08;15.02;61.30
73780;SHT30;62093;37.614;15.072;2023-03-01T05:18:38;15.00;61.27
73780;SHT30;62093;37.614;15.072;2023-03-01T05:21:09;15.00;61.24
73780;SHT30;62093;37.614;15.072;2023-03-01T05:23:36;15.02;61.09
73780;SHT30;62093;37.614;15.072;2023-03-01T05:26:03;15.02;61.31
73780;SHT30;62093;37.614;15.072;2023-03-01T05:28:32;15.04;61.32
73780;SHT30;62093;37.614;15.072;2023-03-01T05:30:58;15.04;60.84
73780;SHT30;62093;37.614;15.072;2023-03-01T05:33:26;15.00;61.02
73780;SHT30;62093;37.614;15.072;2023-03-01T05:35:52;14.99;61.05
73780;SHT30;62093;37.614;15.072;2023-03-01T05:38:20;14.98;61.21
73780;SHT30;62093;37.614;15.072;2023-03-01T05:40:47;15.00;61.27
73780;SHT30;62093;37.614;15.072;2023-03-01T05:43:14;15.00;61.03
73780;SHT30;62093;37.614;15.072;2023-03-01T05:45:42;14.99;60.68
73780;SHT30;62093;37.614;15.072;2023-03-01T05:48:09;15.00;60.12
73780;SHT30;62093;37.614;15.072;2023-03-01T05:50:41;15.00;60.76
73780;SHT30;62093;37.614;15.072;2023-03-01T05:53:18;15.00;60.70
73780;SHT30;62093;37.614;15.072;2023-03-01T05:55:47;15.00;60.34
73780;SHT30;62093;37.614;15.072;2023-03-01T05:58:17;15.00;60.06
73780;SHT30;62093;37.614;15.072;2023-03-01T06:00:46;14.98;60.36
73780;SHT30;62093;37.614;15.072;2023-03-01T06:03:14;14.95;60.45
73780;SHT30;62093;37.614;15.072;2023-03-01T06:05:40;14.98;60.49
73780;SHT30;62093;37.614;15.072;2023-03-01T06:08:07;14.96;60.18
73780;SHT30;62093;37.614;15.072;2023-03-01T06:10:33;14.98;60.35
73780;SHT30;62093;37.614;15.072;2023-03-01T06:12:59;14.98;60.01
73780;SHT30;62093;37.614;15.072;2023-03-01T06:15:25;14.95;60.44
73780;SHT30;62093;37.614;15.072;2023-03-01T06:17:54;14.99;60.67
73780;SHT30;62093;37.614;15.072;2023-03-01T06:20:24;15.00;59.99
73780;SHT30;62093;37.614;15.072;2023-03-01T06:22:51;14.98;60.06
73780;SHT30;62093;37.614;15.072;2023-03-01T06:25:20;14.99;60.24
73780;SHT30;62093;37.614;15.072;2023-03-01T06:27:47;14.96;60.12
73780;SHT30;62093;37.614;15.072;2023-03-01T06:30:16;14.99;59.59
73780;SHT30;62093;37.614;15.072;2023-03-01T06:32:43;14.96;59.84
73780;SHT30;62093;37.614;15.072;2023-03-01T06:35:10;14.96;60.03
73780;SHT30;62093;37.614;15.072;2023-03-01T06:37:37;14.96;60.04
73780;SHT30;62093;37.614;15.072;2023-03-01T06:40:05;14.99;59.47
73780;SHT30;62093;37.614;15.072;2023-03-01T06:42:39;14.96;59.88
73780;SHT30;62093;37.614;15.072;2023-03-01T06:45:06;14.96;59.34
73780;SHT30;62093;37.614;15.072;2023-03-01T06:47:33;14.98;59.64
73780;SHT30;62093;37.614;15.072;2023-03-01T06:50:00;14.99;59.89
73780;SHT30;62093;37.614;15.072;2023-03-01T06:52:26;15.00;60.07
73780;SHT30;62093;37.614;15.072;2023-03-01T06:54:53;15.00;60.14
73780;SHT30;62093;37.614;15.072;2023-03-01T06:57:19;15.00;60.15
73780;SHT30;62093;37.614;15.072;2023-03-01T06:59:47;15.00;60.02
73780;SHT30;62093;37.614;15.072;2023-03-01T07:02:14;15.00;59.62
73780;SHT30;62093;37.614;15.072;2023-03-01T07:04:41;15.02;59.55
73780;SHT30;62093;37.614;15.072;2023-03-01T07:07:08;15.00;59.57
73780;SHT30;62093;37.614;15.072;2023-03-01T07:09:34;15.03;59.53
73780;SHT30;62093;37.614;15.072;2023-03-01T07:12:01;15.02;59.20
73780;SHT30;62093;37.614;15.072;2023-03-01T07:14:27;14.99;59.41
73780;SHT30;62093;37.614;15.072;2023-03-01T07:16:54;15.00;59.26
73780;SHT30;62093;37.614;15.072;2023-03-01T07:19:21;14.99;58.91
73780;SHT30;62093;37.614;15.072;2023-03-01T07:21:48;15.02;59.27
73780;SHT30;62093;37.614;15.072;2023-03-01T07:24:14;15.00;59.04
73780;SHT30;62093;37.614;15.072;2023-03-01T07:26:40;15.03;59.02
73780;SHT30;62093;37.614;15.072;2023-03-01T07:29:08;15.00;59.46
73780;SHT30;62093;37.614;15.072;2023-03-01T07:31:35;15.03;59.61
73780;SHT30;62093;37.614;15.072;2023-03-01T07:34:02;15.04;59.71
73780;SHT30;62093;37.614;15.072;2023-03-01T07:36:28;15.03;59.92
73780;SHT30;62093;37.614;15.072;2023-03-01T07:38:54;15.04;60.03
73780;SHT30;62093;37.614;15.072;2023-03-01T07:41:21;15.06;59.96
73780;SHT30;62093;37.614;15.072;2023-03-01T07:43:47;15.07;59.11
73780;SHT30;62093;37.614;15.072;2023-03-01T07:46:13;15.04;58.51
73780;SHT30;62093;37.614;15.072;2023-03-01T07:48:39;15.04;59.02
73780;SHT30;62093;37.614;15.072;2023-03-01T07:51:06;15.02;58.31
73780;SHT30;62093;37.614;15.072;2023-03-01T07:53:33;15.04;59.37
73780;SHT30;62093;37.614;15.072;2023-03-01T07:56:03;15.09;59.75
73780;SHT30;62093;37.614;15.072;2023-03-01T07:58:30;15.10;59.27
73780;SHT30;62093;37.614;15.072;2023-03-01T08:01:01;15.10;59.46
73780;SHT30;62093;37.614;15.072;2023-03-01T08:03:28;15.10;59.65
73780;SHT30;62093;37.614;15.072;2023-03-01T08:05:54;15.13;59.86
73780;SHT30;62093;37.614;15.072;2023-03-01T08:08:20;15.12;59.32
73780;SHT30;62093;37.614;15.072;2023-03-01T08:10:46;15.13;59.61
73780;SHT30;62093;37.614;15.072;2023-03-01T08:13:12;15.10;59.60
73780;SHT30;62093;37.614;15.072;2023-03-01T08:15:38;15.12;59.70
73780;SHT30;62093;37.614;15.072;2023-03-01T08:18:04;15.12;58.91
73780;SHT30;62093;37.614;15.072;2023-03-01T08:20:32;15.10;58.81
73780;SHT30;62093;37.614;15.072;2023-03-01T08:22:58;15.13;59.20
73780;SHT30;62093;37.614;15.072;2023-03-01T08:25:24;15.09;58.09
73780;SHT30;62093;37.614;15.072;2023-03-01T08:27:50;15.14;58.88
73780;SHT30;62093;37.614;15.072;2023-03-01T08:30:16;15.13;58.22
73780;SHT30;62093;37.614;15.072;2023-03-01T08:32:42;15.14;58.81
73780;SHT30;62093;37.614;15.072;2023-03-01T08:35:08;15.16;56.89
73780;SHT30;62093;37.614;15.072;2023-03-01T08:37:34;15.16;57.86
73780;SHT30;62093;37.614;15.072;2023-03-01T08:40:00;15.16;57.76
73780;SHT30;62093;37.614;15.072;2023-03-01T08:42:27;15.18;56.82
73780;SHT30;62093;37.614;15.072;2023-03-01T08:44:53;15.20;58.32
73780;SHT30;62093;37.614;15.072;2023-03-01T08:47:19;15.18;58.10
73780;SHT30;62093;37.614;15.072;2023-03-01T08:49:45;15.18;58.18
73780;SHT30;62093;37.614;15.072;2023-03-01T08:52:11;15.19;57.20
73780;SHT30;62093;37.614;15.072;2023-03-01T08:54:37;15.18;58.24
73780;SHT30;62093;37.614;15.072;2023-03-01T08:57:03;15.19;57.85
73780;SHT30;62093;37.614;15.072;2023-03-01T08:59:29;15.20;57.70
73780;SHT30;62093;37.614;15.072;2023-03-01T09:01:56;15.19;57.85
73780;SHT30;62093;37.614;15.072;2023-03-01T09:04:22;15.20;57.78
73780;SHT30;62093;37.614;15.072;2023-03-01T09:06:48;15.22;57.99
73780;SHT30;62093;37.614;15.072;2023-03-01T09:09:16;15.23;57.04
73780;SHT30;62093;37.614;15.072;2023-03-01T09:11:43;15.20;58.13
73780;SHT30;62093;37.614;15.072;2023-03-01T09:14:12;15.22;58.25
73780;SHT30;62093;37.614;15.072;2023-03-01T09:16:38;15.26;56.80
73780;SHT30;62093;37.614;15.072;2023-03-01T09:19:05;15.22;57.51
73780;SHT30;62093;37.614;15.072;2023-03-01T09:21:31;15.22;58.16
73780;SHT30;62093;37.614;15.072;2023-03-01T09:23:58;15.22;56.64
73780;SHT30;62093;37.614;15.072;2023-03-01T09:26:24;15.22;56.78
73780;SHT30;62093;37.614;15.072;2023-03-01T09:28:54;15.22;57.17
73780;SHT30;62093;37.614;15.072;2023-03-01T09:31:22;15.23;55.57
73780;SHT30;62093;37.614;15.072;2023-03-01T09:33:50;15.26;56.69
73780;SHT30;62093;37.614;15.072;2023-03-01T09:36:21;15.27;56.87
73780;SHT30;62093;37.614;15.072;2023-03-01T09:38:48;15.24;57.13
73780;SHT30;62093;37.614;15.072;2023-03-01T09:43:49;15.27;57.06
73780;SHT30;62093;37.614;15.072;2023-03-01T09:46:22;15.26;56.82
73780;SHT30;62093;37.614;15.072;2023-03-01T09:48:52;15.27;57.47
73780;SHT30;62093;37.614;15.072;2023-03-01T09:51:31;15.29;56.53
73780;SHT30;62093;37.614;15.072;2023-03-01T09:53:57;15.26;57.14
73780;SHT30;62093;37.614;15.072;2023-03-01T09:56:43;15.27;57.53
73780;SHT30;62093;37.614;15.072;2023-03-01T10:02:41;15.29;57.13
73780;SHT30;62093;37.614;15.072;2023-03-01T10:04:50;15.27;57.17
73780;SHT30;62093;37.614;15.072;2023-03-01T10:09:48;15.30;56.20
73780;SHT30;62093;37.614;15.072;2023-03-01T10:12:20;15.31;56.69
73780;SHT30;62093;37.614;15.072;2023-03-01T10:17:37;15.33;58.14
73780;SHT30;62093;37.614;15.072;2023-03-01T10:20:21;15.34;58.16
73780;SHT30;62093;37.614;15.072;2023-03-01T10:22:48;15.36;57.21
73780;SHT30;62093;37.614;15.072;2023-03-01T10:28:31;15.33;55.87
73780;SHT30;62093;37.614;15.072;2023-03-01T10:31:01;15.33;57.26
73780;SHT30;62093;37.614;15.072;2023-03-01T10:33:35;15.33;57.82
73780;SHT30;62093;37.614;15.072;2023-03-01T10:36:03;15.39;56.37
73780;SHT30;62093;37.614;15.072;2023-03-01T10:38:48;15.39;57.37
73780;SHT30;62093;37.614;15.072;2023-03-01T10:41:14;15.37;56.86
73780;SHT30;62093;37.614;15.072;2023-03-01T10:43:52;15.39;57.07
73780;SHT30;62093;37.614;15.072;2023-03-01T10:51:33;15.40;57.86
73780;SHT30;62093;37.614;15.072;2023-03-01T10:54:00;15.40;57.81
73780;SHT30;62093;37.614;15.072;2023-03-01T10:56:27;15.43;57.51
73780;SHT30;62093;37.614;15.072;2023-03-01T10:58:57;15.44;57.46
73780;SHT30;62093;37.614;15.072;2023-03-01T11:01:32;15.47;57.42
73780;SHT30;62093;37.614;15.072;2023-03-01T11:04:17;15.43;57.53
73780;SHT30;62093;37.614;15.072;2023-03-01T11:06:58;15.43;57.33
73780;SHT30;62093;37.614;15.072;2023-03-01T11:09:24;15.44;57.83
73780;SHT30;62093;37.614;15.072;2023-03-01T11:11:55;15.44;56.98
73780;SHT30;62093;37.614;15.072;2023-03-01T11:14:29;15.46;56.61
73780;SHT30;62093;37.614;15.072;2023-03-01T11:19:37;15.44;56.38
73780;SHT30;62093;37.614;15.072;2023-03-01T11:22:32;15.50;57.02
73780;SHT30;62093;37.614;15.072;2023-03-01T11:25:00;15.51;56.98
73780;SHT30;62093;37.614;15.072;2023-03-01T11:27:33;15.49;55.30
73780;SHT30;62093;37.614;15.072;2023-03-01T11:32:45;15.50;57.34
73780;SHT30;62093;37.614;15.072;2023-03-01T11:35:21;15.51;57.58
73780;SHT30;62093;37.614;15.072;2023-03-01T11:46:33;15.53;56.32
73780;SHT30;62093;37.614;15.072;2023-03-01T11:49:35;15.53;56.64
73780;SHT30;62093;37.614;15.072;2023-03-01T12:09:24;15.54;57.01
73780;SHT30;62093;37.614;15.072;2023-03-01T12:20:31;15.57;56.32
73780;SHT30;62093;37.614;15.072;2023-03-01T12:37:08;15.60;56.38
73780;SHT30;62093;37.614;15.072;2023-03-01T12:40:03;15.57;56.77
73780;SHT30;62093;37.614;15.072;2023-03-01T12:43:26;15.55;56.98
73780;SHT30;62093;37.614;15.072;2023-03-01T12:48:47;15.58;55.92
73780;SHT30;62093;37.614;15.072;2023-03-01T12:51:20;15.60;56.56
73780;SHT30;62093;37.614;15.072;2023-03-01T12:53:51;15.63;56.91
73780;SHT30;62093;37.614;15.072;2023-03-01T12:56:24;15.61;57.13
73780;SHT30;62093;37.614;15.072;2023-03-01T13:10:58;15.63;56.96
73780;SHT30;62093;37.614;15.072;2023-03-01T13:13:27;15.61;56.05
73780;SHT30;62093;37.614;15.072;2023-03-01T13:15:54;15.64;55.54
73780;SHT30;62093;37.614;15.072;2023-03-01T13:20:50;15.67;56.54
73780;SHT30;62093;37.614;15.072;2023-03-01T13:31:08;15.65;56.93
73780;SHT30;62093;37.614;15.072;2023-03-01T13:33:43;15.65;56.39
73780;SHT30;62093;37.614;15.072;2023-03-01T13:36:09;15.65;56.96
73780;SHT30;62093;37.614;15.072;2023-03-01T13:38:46;15.68;56.71
73780;SHT30;62093;37.614;15.072;2023-03-01T13:41:17;15.64;56.92
73780;SHT30;62093;37.614;15.072;2023-03-01T13:43:45;15.64;56.53
73780;SHT30;62093;37.614;15.072;2023-03-01T13:46:23;15.67;56.75
73780;SHT30;62093;37.614;15.072;2023-03-01T13:48:52;15.70;56.76
73780;SHT30;62093;37.614;15.072;2023-03-01T13:51:27;15.67;57.07
73780;SHT30;62093;37.614;15.072;2023-03-01T13:53:55;15.70;57.20
73780;SHT30;62093;37.614;15.072;2023-03-01T13:56:27;15.70;57.42
73780;SHT30;62093;37.614;15.072;2023-03-01T14:01:37;15.70;57.19
73780;SHT30;62093;37.614;15.072;2023-03-01T14:06:46;15.72;57.06
73780;SHT30;62093;37.614;15.072;2023-03-01T14:09:23;15.71;57.24
73780;SHT30;62093;37.614;15.072;2023-03-01T14:12:06;15.71;57.39
73780;SHT30;62093;37.614;15.072;2023-03-01T14:19:56;15.75;57.12
73780;SHT30;62093;37.614;15.072;2023-03-01T14:22:28;15.74;57.00
73780;SHT30;62093;37.614;15.072;2023-03-01T14:24:56;15.75;57.36
73780;SHT30;62093;37.614;15.072;2023-03-01T14:27:26;15.75;57.35
73780;SHT30;62093;37.614;15.072;2023-03-01T14:29:58;15.75;57.36
73780;SHT30;62093;37.614;15.072;2023-03-01T14:32:27;15.75;57.47
73780;SHT30;62093;37.614;15.072;2023-03-01T14:34:54;15.75;57.54
73780;SHT30;62093;37.614;15.072;2023-03-01T14:37:30;15.77;57.08
73780;SHT30;62093;37.614;15.072;2023-03-01T14:39:59;15.77;56.42
73780;SHT30;62093;37.614;15.072;2023-03-01T14:42:30;15.77;56.81
73780;SHT30;62093;37.614;15.072;2023-03-01T14:44:57;15.77;56.83
73780;SHT30;62093;37.614;15.072;2023-03-01T14:47:33;15.75;57.19
73780;SHT30;62093;37.614;15.072;2023-03-01T14:50:05;15.78;57.24
73780;SHT30;62093;37.614;15.072;2023-03-01T14:52:41;15.80;57.16
73780;SHT30;62093;37.614;15.072;2023-03-01T14:55:22;15.78;56.08
73780;SHT30;62093;37.614;15.072;2023-03-01T14:57:51;15.80;57.28
73780;SHT30;62093;37.614;15.072;2023-03-01T15:00:26;15.75;57.37
73780;SHT30;62093;37.614;15.072;2023-03-01T15:02:56;15.80;57.46
73780;SHT30;62093;37.614;15.072;2023-03-01T15:05:29;15.78;57.13
73780;SHT30;62093;37.614;15.072;2023-03-01T15:07:58;15.80;57.26
73780;SHT30;62093;37.614;15.072;2023-03-01T15:10:30;15.82;57.54
73780;SHT30;62093;37.614;15.072;2023-03-01T15:13:13;15.81;57.56
73780;SHT30;62093;37.614;15.072;2023-03-01T15:15:47;15.81;57.66
73780;SHT30;62093;37.614;15.072;2023-03-01T15:18:22;15.80;57.58
73780;SHT30;62093;37.614;15.072;2023-03-01T15:20:51;15.80;57.01
73780;SHT30;62093;37.614;15.072;2023-03-01T15:23:28;15.80;57.56
73780;SHT30;62093;37.614;15.072;2023-03-01T15:25:56;15.77;57.62
73780;SHT30;62093;37.614;15.072;2023-03-01T15:28:37;15.81;57.69
73780;SHT30;62093;37.614;15.072;2023-03-01T15:31:25;15.78;57.53
73780;SHT30;62093;37.614;15.072;2023-03-01T15:33:51;15.80;57.45
73780;SHT30;62093;37.614;15.072;2023-03-01T15:39:22;15.77;57.34
73780;SHT30;62093;37.614;15.072;2023-03-01T15:41:51;15.77;57.31
73780;SHT30;62093;37.614;15.072;2023-03-01T15:44:40;15.75;57.53
73780;SHT30;62093;37.614;15.072;2023-03-01T15:47:29;15.78;57.46
73780;SHT30;62093;37.614;15.072;2023-03-01T15:49:56;15.75;57.43
73780;SHT30;62093;37.614;15.072;2023-03-01T15:52:25;15.75;57.58
73780;SHT30;62093;37.614;15.072;2023-03-01T15:55:02;15.75;57.33
73780;SHT30;62093;37.614;15.072;2023-03-01T15:57:29;15.75;56.42
73780;SHT30;62093;37.614;15.072;2023-03-01T15:59:55;15.75;57.39
73780;SHT30;62093;37.614;15.072;2023-03-01T16:02:23;15.78;57.39
73780;SHT30;62093;37.614;15.072;2023-03-01T16:04:50;15.77;57.59
73780;SHT30;62093;37.614;15.072;2023-03-01T16:07:16;15.78;57.66
73780;SHT30;62093;37.614;15.072;2023-03-01T16:09:42;15.85;57.98
73780;SHT30;62093;37.614;15.072;2023-03-01T16:12:14;15.87;57.91
73780;SHT30;62093;37.614;15.072;2023-03-01T16:14:40;15.88;58.64
73780;SHT30;62093;37.614;15.072;2023-03-01T16:17:06;15.81;56.51
73780;SHT30;62093;37.614;15.072;2023-03-01T16:19:36;15.84;57.67
73780;SHT30;62093;37.614;15.072;2023-03-01T16:22:03;15.81;58.26
73780;SHT30;62093;37.614;15.072;2023-03-01T16:24:29;15.80;57.98
73780;SHT30;62093;37.614;15.072;2023-03-01T16:26:56;15.75;57.69
73780;SHT30;62093;37.614;15.072;2023-03-01T16:29:21;15.75;56.19
73780;SHT30;62093;37.614;15.072;2023-03-01T16:31:47;15.78;59.30
73780;SHT30;62093;37.614;15.072;2023-03-01T16:34:13;15.74;58.07
73780;SHT30;62093;37.614;15.072;2023-03-01T16:36:42;15.75;59.83
73780;SHT30;62093;37.614;15.072;2023-03-01T16:39:09;15.71;59.77
73780;SHT30;62093;37.614;15.072;2023-03-01T16:41:35;15.75;59.35
73780;SHT30;62093;37.614;15.072;2023-03-01T16:44:01;15.68;58.19
73780;SHT30;62093;37.614;15.072;2023-03-01T16:46:28;15.67;60.74
73780;SHT30;62093;37.614;15.072;2023-03-01T16:48:54;15.61;58.61
73780;SHT30;62093;37.614;15.072;2023-03-01T16:51:21;15.64;59.39
73780;SHT30;62093;37.614;15.072;2023-03-01T16:53:47;15.60;59.49
73780;SHT30;62093;37.614;15.072;2023-03-01T16:56:14;15.57;59.16
73780;SHT30;62093;37.614;15.072;2023-03-01T16:58:41;15.57;59.84
73780;SHT30;62093;37.614;15.072;2023-03-01T17:01:12;15.47;59.97
73780;SHT30;62093;37.614;15.072;2023-03-01T17:03:39;15.40;58.54
73780;SHT30;62093;37.614;15.072;2023-03-01T17:06:07;15.36;58.38
73780;SHT30;62093;37.614;15.072;2023-03-01T17:08:34;15.36;58.18
73780;SHT30;62093;37.614;15.072;2023-03-01T17:11:11;15.37;60.54
73780;SHT30;62093;37.614;15.072;2023-03-01T17:13:39;15.53;60.91
73780;SHT30;62093;37.614;15.072;2023-03-01T17:16:09;15.54;61.47
73780;SHT30;62093;37.614;15.072;2023-03-01T17:18:36;15.60;61.13
73780;SHT30;62093;37.614;15.072;2023-03-01T17:21:04;15.57;61.65
73780;SHT30;62093;37.614;15.072;2023-03-01T17:23:32;15.58;61.47
73780;SHT30;62093;37.614;15.072;2023-03-01T17:25:58;15.58;61.50
73780;SHT30;62093;37.614;15.072;2023-03-01T17:28:26;15.54;59.97
73780;SHT30;62093;37.614;15.072;2023-03-01T17:30:53;15.51;59.66
73780;SHT30;62093;37.614;15.072;2023-03-01T17:33:19;15.51;60.16
73780;SHT30;62093;37.614;15.072;2023-03-01T17:35:46;15.54;61.83
73780;SHT30;62093;37.614;15.072;2023-03-01T17:38:13;15.54;60.69
73780;SHT30;62093;37.614;15.072;2023-03-01T17:40:40;15.53;60.78
73780;SHT30;62093;37.614;15.072;2023-03-01T17:43:08;15.47;60.55